Terminal Aerodrome Forecast
Issued by NWS Sterling, VA

Current Version | Previous Version | Graphics & Text | Print | Product List | Glossary On
Versions: 1 2 3 4 5 6 7 8 9 10 11 12 13 14 15
505
FTUS41 KLWX 212320
TAFMRB
TAF
KMRB 212320Z 2200/2224 11005KT P6SM SKC
     FM221300 23004KT P6SM FEW050
     FM221900 26008KT P6SM SCT050=

USA.gov is the U.S. government's official web portal to all federal, state and local government web resources and services.